createdAt,value
2019-05-26T00:01:16.984Z,72.77
2019-05-26T00:03:48.044Z,76.50
2019-05-26T00:06:17.675Z,82.70
2019-05-26T00:08:47.005Z,85.10
2019-05-26T00:11:17.867Z,86.70
2019-05-26T00:13:49.932Z,95.37
2019-05-26T00:16:21.980Z,84.13
2019-05-26T00:18:51.272Z,91.23
2019-05-26T00:21:20.769Z,102.23
2019-05-26T00:23:50.286Z,104.17
2019-05-26T00:26:19.767Z,105.20
2019-05-26T00:28:49.911Z,106.20
2019-05-26T00:31:21.399Z,113.23
2019-05-26T00:33:53.974Z,119.80
2019-05-26T00:36:23.141Z,112.70
2019-05-26T00:38:52.318Z,107.73
2019-05-26T00:41:23.362Z,110.87
2019-05-26T00:43:57.300Z,104.67
2019-05-26T00:46:29.107Z,103.43
2019-05-26T00:49:00.270Z,118.10
2019-05-26T00:51:30.997Z,111.30
2019-05-26T00:54:01.301Z,105.27
2019-05-26T00:56:39.849Z,91.33
2019-05-26T00:59:09.395Z,101.90
2019-05-26T01:01:38.572Z,99.27
2019-05-26T01:04:27.339Z,91.50
2019-05-26T01:06:57.280Z,86.27
2019-05-26T01:09:26.445Z,91.37
2019-05-26T01:11:58.321Z,91.40
2019-05-26T01:14:27.439Z,82.50
2019-05-26T01:16:56.653Z,81.73
2019-05-26T01:19:31.451Z,76.93
2019-05-26T01:22:00.596Z,73.20
2019-05-26T01:24:31.359Z,87.50
2019-05-26T01:27:01.740Z,78.73
2019-05-26T01:29:32.399Z,74.70
2019-05-26T01:32:02.734Z,74.20
2019-05-26T01:34:32.226Z,70.43
2019-05-26T01:37:03.138Z,74.37
2019-05-26T01:39:32.782Z,78.97
2019-05-26T01:42:02.975Z,77.93
2019-05-26T01:44:34.063Z,78.93
2019-05-26T01:47:04.656Z,73.13
2019-05-26T01:49:34.165Z,71.57
2019-05-26T01:52:03.368Z,74.70
2019-05-26T01:54:32.847Z,78.57
2019-05-26T01:57:02.071Z,76.90
2019-05-26T01:59:31.232Z,72.30
2019-05-26T02:02:02.480Z,79.20
2019-05-26T02:04:32.050Z,84.73
2019-05-26T02:07:04.127Z,77.27
2019-05-26T02:09:37.056Z,70.80
2019-05-26T02:12:07.687Z,71.27
2019-05-26T02:14:36.849Z,81.70
2019-05-26T02:17:06.091Z,80.00
2019-05-26T02:19:35.295Z,77.50
2019-05-26T02:22:04.555Z,72.53
2019-05-26T02:24:33.711Z,73.33
2019-05-26T02:27:03.599Z,74.93
2019-05-26T02:29:33.340Z,72.17
2019-05-26T02:32:02.602Z,67.83
2019-05-26T02:34:32.075Z,71.93
2019-05-26T02:37:04.100Z,72.97
2019-05-26T02:39:34.628Z,74.53
2019-05-26T02:42:04.770Z,71.30
2019-05-26T02:44:35.169Z,74.13
2019-05-26T02:47:05.814Z,70.67
2019-05-26T02:49:37.371Z,74.67
2019-05-26T02:52:06.272Z,72.07
2019-05-26T02:54:38.090Z,67.13
2019-05-26T02:57:09.556Z,73.83
2019-05-26T02:59:40.900Z,76.93
2019-05-26T03:02:11.900Z,69.00
2019-05-26T03:04:42.316Z,74.57
2019-05-26T03:07:14.898Z,70.67
2019-05-26T03:09:46.418Z,76.93
2019-05-26T03:12:17.191Z,75.10
2019-05-26T03:14:49.901Z,69.47
2019-05-26T03:17:23.158Z,68.07
2019-05-26T03:19:54.038Z,66.87
2019-05-26T03:22:27.589Z,65.33
2019-05-26T03:25:00.791Z,88.40
2019-05-26T03:27:30.008Z,88.90
2019-05-26T03:29:59.444Z,90.07
2019-05-26T03:32:28.842Z,88.63
2019-05-26T03:34:59.033Z,86.17
2019-05-26T03:37:28.751Z,83.27
2019-05-26T03:39:58.378Z,90.43
2019-05-26T03:42:27.601Z,94.47
2019-05-26T03:44:58.857Z,86.40
2019-05-26T03:47:39.676Z,79.57
2019-05-26T03:50:10.080Z,82.00
2019-05-26T03:52:39.211Z,81.07
2019-05-26T03:55:08.500Z,82.73
2019-05-26T03:57:37.788Z,74.47
2019-05-26T04:00:08.329Z,70.07
2019-05-26T04:02:37.699Z,68.63
2019-05-26T04:05:09.069Z,61.63
2019-05-26T04:07:38.265Z,64.03
2019-05-26T04:10:08.097Z,66.17
2019-05-26T04:12:37.404Z,60.50
2019-05-26T04:15:06.923Z,57.37
2019-05-26T04:17:55.539Z,54.10
2019-05-26T04:20:24.974Z,54.37
2019-05-26T04:22:54.725Z,48.97
2019-05-26T04:25:23.976Z,57.13
2019-05-26T04:27:54.387Z,53.17
2019-05-26T04:30:23.625Z,47.93
2019-05-26T04:32:53.204Z,54.47
2019-05-26T04:35:23.089Z,50.87
2019-05-26T04:37:56.019Z,55.83
2019-05-26T04:40:27.628Z,47.40
2019-05-26T04:42:56.334Z,51.33
2019-05-26T04:45:28.948Z,48.43
2019-05-26T04:48:00.747Z,48.83
2019-05-26T04:50:30.350Z,48.33
2019-05-26T04:53:06.536Z,47.00
2019-05-26T04:55:30.773Z,50.40
2019-05-26T04:58:00.025Z,51.67
2019-05-26T05:00:29.935Z,47.47
2019-05-26T05:03:05.851Z,43.73
2019-05-26T05:05:35.729Z,45.57
2019-05-26T05:08:12.813Z,49.00
2019-05-26T05:10:43.002Z,44.43
2019-05-26T05:13:20.458Z,48.17
2019-05-26T05:15:49.831Z,45.60
2019-05-26T05:18:19.069Z,49.87
2019-05-26T05:20:48.584Z,48.03
2019-05-26T05:23:18.101Z,38.83
2019-05-26T05:25:47.236Z,41.90
2019-05-26T05:28:19.236Z,45.50
2019-05-26T05:31:37.856Z,44.30
2019-05-26T05:34:07.089Z,44.40
2019-05-26T05:36:36.368Z,40.13
2019-05-26T05:39:08.252Z,42.50
2019-05-26T05:41:37.493Z,39.10
2019-05-26T05:44:06.711Z,42.00
2019-05-26T05:46:35.907Z,44.07
2019-05-26T05:49:05.249Z,42.20
2019-05-26T05:51:38.184Z,40.50
2019-05-26T05:54:11.336Z,39.50
2019-05-26T05:56:40.811Z,40.87
2019-05-26T05:59:09.985Z,39.80
2019-05-26T06:01:39.259Z,40.33
2019-05-26T06:04:08.647Z,43.03
2019-05-26T06:06:38.234Z,40.53
2019-05-26T06:09:07.792Z,42.43
2019-05-26T06:11:37.118Z,39.30
2019-05-26T06:14:06.272Z,40.97
2019-05-26T06:16:36.751Z,42.43
2019-05-26T06:19:06.255Z,39.03
2019-05-26T06:21:35.717Z,41.13
2019-05-26T06:24:08.698Z,37.23
2019-05-26T06:26:37.896Z,36.90
2019-05-26T06:29:07.044Z,37.37
2019-05-26T06:31:38.704Z,41.90
2019-05-26T06:34:08.000Z,40.47
2019-05-26T06:36:37.391Z,41.23
2019-05-26T06:39:10.354Z,40.53
2019-05-26T06:41:42.780Z,36.13
2019-05-26T06:44:12.267Z,43.07
2019-05-26T06:46:41.769Z,43.80
2019-05-26T06:49:10.919Z,39.33
2019-05-26T06:51:43.206Z,30.63
2019-05-26T06:54:13.922Z,38.30
2019-05-26T06:56:45.753Z,40.37
2019-05-26T06:59:17.112Z,33.93
2019-05-26T07:01:47.420Z,37.27
2019-05-26T07:04:16.995Z,38.57
2019-05-26T07:06:46.263Z,37.07
2019-05-26T07:09:15.413Z,36.13
2019-05-26T07:11:55.745Z,36.23
2019-05-26T07:14:16.659Z,37.33
2019-05-26T07:16:46.221Z,34.20
2019-05-26T07:19:16.779Z,34.63
2019-05-26T07:21:46.278Z,31.23
2019-05-26T07:24:15.739Z,38.93
2019-05-26T07:26:46.159Z,31.53
2019-05-26T07:29:19.529Z,32.23
2019-05-26T07:31:59.627Z,32.80
2019-05-26T07:34:30.116Z,35.63
2019-05-26T07:37:01.745Z,32.40
2019-05-26T07:39:34.784Z,32.73
2019-05-26T07:42:10.687Z,29.43
2019-05-26T07:44:36.458Z,32.93
2019-05-26T07:47:08.650Z,34.00
2019-05-26T07:49:37.816Z,28.97
2019-05-26T07:52:08.144Z,28.87
2019-05-26T07:54:39.952Z,29.87
2019-05-26T07:57:09.202Z,29.00
2019-05-26T07:59:39.521Z,33.77
2019-05-26T08:02:16.576Z,29.80
2019-05-26T08:04:47.131Z,30.80
2019-05-26T08:07:23.109Z,31.33
2019-05-26T08:10:02.473Z,30.47
2019-05-26T08:12:33.222Z,27.70
2019-05-26T08:15:02.708Z,29.37
2019-05-26T08:17:32.121Z,29.50
2019-05-26T08:20:02.396Z,28.87
2019-05-26T08:22:33.221Z,32.23
2019-05-26T08:25:06.275Z,25.67
2019-05-26T08:27:36.209Z,25.73
2019-05-26T08:30:14.709Z,23.30
2019-05-26T08:32:43.683Z,25.43
2019-05-26T08:35:19.630Z,20.57
2019-05-26T08:37:52.877Z,22.07
2019-05-26T08:40:22.423Z,26.40
2019-05-26T08:42:53.921Z,24.20
2019-05-26T08:45:23.707Z,19.20
2019-05-26T08:47:53.104Z,22.00
2019-05-26T08:50:24.780Z,20.67
2019-05-26T08:52:54.673Z,20.73
2019-05-26T08:55:24.134Z,20.90
2019-05-26T08:57:55.243Z,17.67
2019-05-26T09:00:25.879Z,14.20
2019-05-26T09:02:57.974Z,25.00
2019-05-26T09:05:27.646Z,21.70
2019-05-26T09:07:56.871Z,19.73
2019-05-26T09:10:26.040Z,15.40
2019-05-26T09:13:01.147Z,20.87
2019-05-26T09:15:27.747Z,17.50
2019-05-26T09:17:59.130Z,19.27
2019-05-26T09:20:28.430Z,18.40
2019-05-26T09:22:58.409Z,15.80
2019-05-26T09:25:33.410Z,13.73
2019-05-26T09:28:05.099Z,15.27
2019-05-26T09:30:35.047Z,16.53
2019-05-26T09:33:18.121Z,17.30
2019-05-26T09:35:47.349Z,11.87
2019-05-26T09:38:16.624Z,16.00
2019-05-26T09:40:45.898Z,14.30
2019-05-26T09:43:16.744Z,13.33
2019-05-26T09:45:46.397Z,17.57
2019-05-26T09:48:16.195Z,11.30
2019-05-26T09:50:45.441Z,16.13
2019-05-26T09:53:14.667Z,16.57
2019-05-26T09:55:43.869Z,16.93
2019-05-26T09:58:17.231Z,14.80
2019-05-26T10:00:50.678Z,17.60
2019-05-26T10:03:20.724Z,18.97
2019-05-26T10:05:52.305Z,16.90
2019-05-26T10:08:21.334Z,19.40
2019-05-26T10:10:52.822Z,16.87
2019-05-26T10:13:31.284Z,14.43
2019-05-26T10:15:56.871Z,15.07
2019-05-26T10:18:27.549Z,17.87
2019-05-26T10:20:56.788Z,16.93
2019-05-26T10:23:26.065Z,20.07
2019-05-26T10:25:58.340Z,15.87
2019-05-26T10:28:37.026Z,12.67
2019-05-26T10:31:15.391Z,11.63
2019-05-26T10:33:44.794Z,8.80
2019-05-26T10:36:16.499Z,15.90
2019-05-26T10:38:46.174Z,15.27
2019-05-26T10:41:16.704Z,13.30
2019-05-26T10:43:47.680Z,13.77
2019-05-26T10:46:20.342Z,10.17
2019-05-26T10:48:49.596Z,13.33
2019-05-26T10:51:22.329Z,10.43
2019-05-26T10:53:54.103Z,11.27
2019-05-26T10:56:28.461Z,13.10
2019-05-26T10:58:57.964Z,7.50
2019-05-26T11:01:27.213Z,10.20
2019-05-26T11:03:57.041Z,11.93
2019-05-26T11:06:26.990Z,10.60
2019-05-26T11:08:56.159Z,9.40
2019-05-26T11:11:25.361Z,11.33
2019-05-26T11:14:06.096Z,11.17
2019-05-26T11:16:35.679Z,9.53
2019-05-26T11:19:07.778Z,8.07
2019-05-26T11:21:39.600Z,10.30
2019-05-26T11:24:10.267Z,8.63
2019-05-26T11:26:40.037Z,9.97
2019-05-26T11:29:12.026Z,6.40
2019-05-26T11:31:41.500Z,11.83
2019-05-26T11:34:13.839Z,7.57
2019-05-26T11:36:46.182Z,4.90
2019-05-26T11:39:15.414Z,8.17
2019-05-26T11:41:54.970Z,8.50
2019-05-26T11:44:24.876Z,9.63
2019-05-26T11:47:00.942Z,10.23
2019-05-26T11:49:31.965Z,6.70
2019-05-26T11:52:03.522Z,9.17
2019-05-26T11:54:34.640Z,7.10
2019-05-26T11:57:05.612Z,7.17
2019-05-26T11:59:34.760Z,9.10
2019-05-26T12:02:04.370Z,7.77
2019-05-26T12:04:48.495Z,6.90
2019-05-26T12:07:21.844Z,6.63
2019-05-26T12:09:51.373Z,6.47
2019-05-26T12:12:22.591Z,5.43
2019-05-26T12:14:51.979Z,5.27
2019-05-26T12:17:22.626Z,8.90
2019-05-26T12:19:52.688Z,8.47
2019-05-26T12:22:25.689Z,7.90
2019-05-26T12:24:56.240Z,6.60
2019-05-26T12:27:25.517Z,3.43
2019-05-26T12:29:55.093Z,5.40
2019-05-26T12:32:24.363Z,5.47
2019-05-26T12:34:53.542Z,4.27
2019-05-26T12:37:22.979Z,6.10
2019-05-26T12:39:52.112Z,2.73
2019-05-26T12:42:21.323Z,6.17
2019-05-26T12:44:50.595Z,5.17
2019-05-26T12:47:19.844Z,3.13
2019-05-26T12:49:49.930Z,3.40
2019-05-26T12:52:19.259Z,5.17
2019-05-26T12:54:48.443Z,3.20
2019-05-26T12:57:19.008Z,8.77
2019-05-26T12:59:48.514Z,2.97
2019-05-26T13:02:17.996Z,6.80
2019-05-26T13:04:47.712Z,2.77
2019-05-26T13:07:17.055Z,4.80
2019-05-26T13:09:46.248Z,2.03
2019-05-26T13:12:17.349Z,3.77
2019-05-26T13:14:46.607Z,4.43
2019-05-26T13:17:15.823Z,5.50
2019-05-26T13:19:47.454Z,4.07
2019-05-26T13:22:19.004Z,2.10
2019-05-26T13:24:48.231Z,7.03
2019-05-26T13:27:17.526Z,3.60
2019-05-26T13:29:47.423Z,6.03
2019-05-26T13:32:16.919Z,2.53
2019-05-26T13:34:47.203Z,3.93
2019-05-26T13:37:16.558Z,2.00
2019-05-26T13:39:45.761Z,2.03
2019-05-26T13:42:18.054Z,4.00
2019-05-26T13:44:59.016Z,0.80
2019-05-26T13:47:30.337Z,4.47
2019-05-26T13:49:59.918Z,1.57
2019-05-26T13:52:31.446Z,5.70
2019-05-26T13:55:03.172Z,1.57
2019-05-26T13:57:34.100Z,1.33
2019-05-26T14:00:06.851Z,3.90
2019-05-26T14:02:36.817Z,3.63
2019-05-26T14:05:06.706Z,6.73
2019-05-26T14:07:36.938Z,10.17
2019-05-26T14:10:10.210Z,3.50
2019-05-26T14:12:39.423Z,6.57
2019-05-26T14:15:11.962Z,8.50
2019-05-26T14:17:46.379Z,7.07
2019-05-26T14:20:19.001Z,6.10
2019-05-26T14:22:48.299Z,8.57
2019-05-26T14:25:19.938Z,7.00
2019-05-26T14:27:49.528Z,8.03
2019-05-26T14:30:19.982Z,10.40
2019-05-26T14:32:51.438Z,7.63
2019-05-26T14:35:22.088Z,13.73
2019-05-26T14:37:53.944Z,4.67
2019-05-26T14:40:23.186Z,6.03
2019-05-26T14:42:55.537Z,6.27
2019-05-26T14:45:25.368Z,5.87
2019-05-26T14:47:54.796Z,9.37
2019-05-26T14:50:24.805Z,5.53
2019-05-26T14:52:56.333Z,6.67
2019-05-26T14:55:26.460Z,6.40
2019-05-26T14:57:55.732Z,6.43
2019-05-26T15:00:27.736Z,4.73
2019-05-26T15:02:57.161Z,6.87
2019-05-26T15:05:26.453Z,6.10
2019-05-26T15:07:58.190Z,5.27
2019-05-26T15:10:27.840Z,10.63
2019-05-26T15:12:59.248Z,6.83
2019-05-26T15:15:29.610Z,10.93
2019-05-26T15:18:02.579Z,7.27
2019-05-26T15:20:33.851Z,8.53
2019-05-26T15:23:03.120Z,6.57
2019-05-26T15:25:32.550Z,6.43
2019-05-26T15:28:02.576Z,7.37
2019-05-26T15:30:34.220Z,5.23
2019-05-26T15:33:05.265Z,7.27
2019-05-26T15:35:39.337Z,9.10
2019-05-26T15:38:08.549Z,11.63
2019-05-26T15:40:38.007Z,10.30
2019-05-26T15:43:08.811Z,5.70
2019-05-26T15:45:38.255Z,9.90
2019-05-26T15:48:07.464Z,7.47
2019-05-26T15:50:36.770Z,10.23
2019-05-26T15:53:06.065Z,8.17
2019-05-26T15:55:35.304Z,9.37
2019-05-26T15:58:04.481Z,5.87
2019-05-26T16:00:33.725Z,12.53
2019-05-26T16:03:02.910Z,14.80
2019-05-26T16:05:32.165Z,10.50
2019-05-26T16:08:04.373Z,7.57
2019-05-26T16:10:33.838Z,8.83
2019-05-26T16:13:07.810Z,9.53
2019-05-26T16:15:37.326Z,6.73
2019-05-26T16:18:08.736Z,10.00
2019-05-26T16:20:38.975Z,9.77
2019-05-26T16:23:09.069Z,8.10
2019-05-26T16:25:42.590Z,9.47
2019-05-26T16:28:12.951Z,9.93
2019-05-26T16:30:45.288Z,7.63
2019-05-26T16:33:14.595Z,8.40
2019-05-26T16:35:44.025Z,5.07
2019-05-26T16:38:13.335Z,5.23
2019-05-26T16:40:44.184Z,7.20
2019-05-26T16:43:16.513Z,11.20
2019-05-26T16:45:55.722Z,11.80
2019-05-26T16:48:19.781Z,12.67
2019-05-26T16:50:49.021Z,9.67
2019-05-26T16:53:18.625Z,8.27
2019-05-26T16:55:47.964Z,8.23
2019-05-26T16:58:18.153Z,10.17
2019-05-26T17:00:48.617Z,10.87
2019-05-26T17:03:19.436Z,15.07
2019-05-26T17:06:05.236Z,9.33
2019-05-26T17:08:22.347Z,17.43
2019-05-26T17:10:55.785Z,10.07
2019-05-26T17:13:27.968Z,9.70
2019-05-26T17:15:57.247Z,12.67
2019-05-26T17:18:26.548Z,13.43
2019-05-26T17:20:56.264Z,13.27
2019-05-26T17:23:25.470Z,10.90
2019-05-26T17:26:06.880Z,14.00
2019-05-26T17:28:37.630Z,15.17
2019-05-26T17:31:07.474Z,10.67
2019-05-26T17:33:39.071Z,13.83
2019-05-26T17:36:11.000Z,16.53
2019-05-26T17:38:41.119Z,19.27
2019-05-26T17:41:12.127Z,11.00
2019-05-26T17:43:41.744Z,14.03
2019-05-26T17:46:17.689Z,16.07
2019-05-26T17:48:48.024Z,12.50
2019-05-26T17:51:22.496Z,11.43
2019-05-26T17:53:52.424Z,11.97
2019-05-26T17:56:21.740Z,13.47
2019-05-26T17:58:51.041Z,12.43
2019-05-26T18:01:20.292Z,8.03
2019-05-26T18:03:49.431Z,11.57
2019-05-26T18:06:18.685Z,9.90
2019-05-26T18:08:48.022Z,16.40
2019-05-26T18:11:17.199Z,14.70
2019-05-26T18:13:46.825Z,12.00
2019-05-26T18:16:19.140Z,9.03
2019-05-26T18:18:51.062Z,12.27
2019-05-26T18:21:20.298Z,14.93
2019-05-26T18:23:51.097Z,12.37
2019-05-26T18:26:21.477Z,10.67
2019-05-26T18:28:51.397Z,16.50
2019-05-26T18:31:20.857Z,12.97
2019-05-26T18:33:53.238Z,12.00
2019-05-26T18:36:23.002Z,11.53
2019-05-26T18:38:52.672Z,15.93
2019-05-26T18:41:22.768Z,11.63
2019-05-26T18:44:01.378Z,13.73
2019-05-26T18:46:30.993Z,13.73
2019-05-26T18:49:01.844Z,15.40
2019-05-26T18:51:31.237Z,14.67
2019-05-26T18:54:00.569Z,15.07
2019-05-26T18:56:31.329Z,21.03
2019-05-26T18:59:03.066Z,29.77
2019-05-26T19:01:38.202Z,19.43
2019-05-26T19:04:07.503Z,21.10
2019-05-26T19:06:36.747Z,19.17
2019-05-26T19:09:10.438Z,21.30
2019-05-26T19:11:42.226Z,24.80
2019-05-26T19:14:13.889Z,27.13
2019-05-26T19:16:43.159Z,23.10
2019-05-26T19:19:12.384Z,19.67
2019-05-26T19:21:41.641Z,17.87
2019-05-26T19:24:10.972Z,20.07
2019-05-26T19:26:40.266Z,14.80
2019-05-26T19:29:09.599Z,17.13
2019-05-26T19:31:38.860Z,22.57
2019-05-26T19:34:08.074Z,18.97
2019-05-26T19:36:37.246Z,19.37
2019-05-26T19:39:09.210Z,19.77
2019-05-26T19:41:39.489Z,18.77
2019-05-26T19:44:08.854Z,23.20
2019-05-26T19:46:39.224Z,25.23
2019-05-26T19:49:08.467Z,18.53
2019-05-26T19:51:38.891Z,17.13
2019-05-26T19:54:09.479Z,19.73
2019-05-26T19:56:40.525Z,18.13
2019-05-26T19:59:12.365Z,20.37
2019-05-26T20:01:41.969Z,16.93
2019-05-26T20:04:11.603Z,22.10
2019-05-26T20:06:43.948Z,18.20
2019-05-26T20:09:12.995Z,15.90
2019-05-26T20:11:44.785Z,16.80
2019-05-26T20:14:19.758Z,15.53
2019-05-26T20:16:50.044Z,17.37
2019-05-26T20:19:19.325Z,16.73
2019-05-26T20:21:50.894Z,17.03
2019-05-26T20:24:20.025Z,21.77
2019-05-26T20:26:49.625Z,14.27
2019-05-26T20:29:19.088Z,15.27
2019-05-26T20:31:48.223Z,12.07
2019-05-26T20:34:17.376Z,14.37
2019-05-26T20:36:46.611Z,14.47
2019-05-26T20:39:15.848Z,16.97
2019-05-26T20:41:45.160Z,13.87
2019-05-26T20:44:14.358Z,12.17
2019-05-26T20:46:43.573Z,11.07
2019-05-26T20:49:16.274Z,14.70
2019-05-26T20:51:46.660Z,11.43
2019-05-26T20:54:15.828Z,9.50
2019-05-26T20:56:45.940Z,9.63
2019-05-26T20:59:15.596Z,10.23
2019-05-26T21:01:44.749Z,8.63
2019-05-26T21:04:14.063Z,7.50
2019-05-26T21:06:43.258Z,9.60
2019-05-26T21:09:13.933Z,9.33
2019-05-26T21:11:48.243Z,10.33
2019-05-26T21:14:17.906Z,9.07
2019-05-26T21:16:47.165Z,10.67
2019-05-26T21:19:19.079Z,10.40
2019-05-26T21:21:48.203Z,11.27
2019-05-26T21:24:18.185Z,11.33
2019-05-26T21:26:48.215Z,14.70
2019-05-26T21:29:17.371Z,16.10
2019-05-26T21:31:46.558Z,15.33
2019-05-26T21:34:16.022Z,16.43
2019-05-26T21:36:45.157Z,19.73
2019-05-26T21:39:14.349Z,20.67
2019-05-26T21:41:43.667Z,23.23
2019-05-26T21:44:12.949Z,22.27
2019-05-26T21:46:42.149Z,24.83
2019-05-26T21:49:13.459Z,25.67
2019-05-26T21:51:45.621Z,26.40
2019-05-26T21:54:15.197Z,19.00
2019-05-26T21:56:44.424Z,24.83
2019-05-26T21:59:17.192Z,25.40
2019-05-26T22:01:46.549Z,17.30
2019-05-26T22:04:15.828Z,21.23
2019-05-26T22:06:45.803Z,24.47
2019-05-26T22:09:15.916Z,33.17
2019-05-26T22:11:45.140Z,32.10
2019-05-26T22:14:14.302Z,35.77
2019-05-26T22:16:45.338Z,29.70
2019-05-26T22:19:15.156Z,35.03
2019-05-26T22:21:44.407Z,38.50
2019-05-26T22:24:13.650Z,34.43
2019-05-26T22:26:43.049Z,32.67
2019-05-26T22:29:12.575Z,36.20
2019-05-26T22:31:43.000Z,41.27
2019-05-26T22:34:15.590Z,35.57
2019-05-26T22:36:44.748Z,36.77
2019-05-26T22:39:17.522Z,28.63
2019-05-26T22:41:46.723Z,39.23
2019-05-26T22:44:15.951Z,36.67
2019-05-26T22:46:45.304Z,30.73
2019-05-26T22:49:14.518Z,42.30
2019-05-26T22:51:43.779Z,32.77
2019-05-26T22:54:13.130Z,37.63
2019-05-26T22:56:42.492Z,40.03
2019-05-26T22:59:11.878Z,34.30
2019-05-26T23:01:41.140Z,34.43
2019-05-26T23:04:10.797Z,34.53
2019-05-26T23:06:40.055Z,36.43
2019-05-26T23:09:10.367Z,39.87
2019-05-26T23:11:39.599Z,33.00
2019-05-26T23:14:12.480Z,40.23
2019-05-26T23:16:42.008Z,39.90
2019-05-26T23:19:23.636Z,40.53
2019-05-26T23:22:02.650Z,36.40
2019-05-26T23:24:32.979Z,39.87
2019-05-26T23:27:05.059Z,33.10
2019-05-26T23:29:37.170Z,38.63
2019-05-26T23:32:08.091Z,43.63
2019-05-26T23:34:37.679Z,36.90
2019-05-26T23:37:07.296Z,45.43
2019-05-26T23:39:42.347Z,49.47
2019-05-26T23:42:15.985Z,43.37
2019-05-26T23:44:45.144Z,44.70
2019-05-26T23:47:22.801Z,38.23
2019-05-26T23:49:52.709Z,35.67
2019-05-26T23:52:21.904Z,42.03
2019-05-26T23:54:53.709Z,30.63
2019-05-26T23:57:22.972Z,30.10
2019-05-26T23:59:52.099Z,30.63
